| << 27.7. | 29.7. >> |
|
Windrichtung in Grad |
Windgeschw. in m/s |
Windspitzen in m/s |
Temp.Minima in °C |
Temperatur in °C |
Temp.Maxima in °C |
Luftfeuchte in % |
Luftdruck in hPa |
Taupunkt in °C |
Niederschlag in mm |
|
|---|---|---|---|---|---|---|---|---|---|---|
| ▲ Maxima | 1,4 | 4,4 | 28,6 | 29,1 | 29,7 | 85,9 | 1010,1 | 12,9 | 0,0 | |
| Ø Mittelwert | 123,4 | 0,7 | 1,9 | 20,7 | 21,0 | 21,3 | 54,6 | 1008,5 | 11,6 | 0,0 |
| ▼ Minima | 0,1 | 0,5 | 11,8 | 11,9 | 12,0 | 33,3 | 1006,5 | 10,9 | 0,0 | |
| ∑ Summe | 0,0 |
| Uhrzeit (MEZ) | Windrichtung in Grad | Windgeschw. in m/s | Windspitzen in m/s | Temp.Minima in °C | Temperatur in °C | Temp.Maxima in °C | Luftfeuchte in % | Luftdruck in hPa | Taupunkt in °C | Niederschlag in mm |
|---|---|---|---|---|---|---|---|---|---|---|
| 00:00 | 239,1 | 0,6 | 1,0 | 14,9 | 15,0 | 15,1 | 72,1 | 1009,0 | 11,4 | 0,0 |
| 00:10 | 245,7 | 0,6 | 1,0 | 14,7 | 14,8 | 15,0 | 73,0 | 1009,0 | 11,5 | 0,0 |
| 00:20 | 247,7 | 0,6 | 0,9 | 14,3 | 14,5 | 14,7 | 74,2 | 1009,0 | 11,4 | 0,0 |
| 00:30 | 247,3 | 0,7 | 1,0 | 14,1 | 14,3 | 14,4 | 75,7 | 1008,9 | 11,5 | 0,0 |
| 00:40 | 248,0 | 0,6 | 1,0 | 14,0 | 14,1 | 14,2 | 76,3 | 1009,0 | 11,5 | 0,0 |
| 00:50 | 243,0 | 0,7 | 0,9 | 13,8 | 13,9 | 14,0 | 77,2 | 1009,1 | 11,4 | 0,0 |
| 01:00 | 244,9 | 0,7 | 1,2 | 13,7 | 13,9 | 14,0 | 77,2 | 1009,2 | 11,4 | 0,0 |
| 01:10 | 253,0 | 0,6 | 1,1 | 13,6 | 13,7 | 13,8 | 77,3 | 1009,2 | 11,3 | 0,0 |
| 01:20 | 254,7 | 0,5 | 0,9 | 13,5 | 13,6 | 13,7 | 77,4 | 1009,2 | 11,2 | 0,0 |
| 01:30 | 249,3 | 0,6 | 0,9 | 13,4 | 13,5 | 13,6 | 77,7 | 1009,2 | 11,2 | 0,0 |
| 01:40 | 247,8 | 0,6 | 0,9 | 13,1 | 13,3 | 13,5 | 78,6 | 1009,2 | 11,2 | 0,0 |
| 01:50 | 268,3 | 0,5 | 0,8 | 12,9 | 13,0 | 13,1 | 79,5 | 1009,2 | 11,1 | 0,0 |
| 02:00 | 265,0 | 0,5 | 0,9 | 12,7 | 12,9 | 12,9 | 80,3 | 1009,3 | 11,1 | 0,0 |
| 02:10 | 270,0 | 0,6 | 1,1 | 12,4 | 12,6 | 12,9 | 81,6 | 1009,3 | 11,1 | 0,0 |
| 02:20 | 272,4 | 0,6 | 0,9 | 12,2 | 12,4 | 12,5 | 83,1 | 1009,3 | 11,2 | 0,0 |
| 02:30 | 264,8 | 0,6 | 1,0 | 12,1 | 12,3 | 12,3 | 83,9 | 1009,3 | 11,2 | 0,0 |
| 02:40 | 266,1 | 0,6 | 0,9 | 11,9 | 12,1 | 12,3 | 84,5 | 1009,4 | 11,2 | 0,0 |
| 02:50 | 275,5 | 0,6 | 1,1 | 11,9 | 12,0 | 12,2 | 85,2 | 1009,4 | 11,2 | 0,0 |
| 03:00 | 267,9 | 0,8 | 1,1 | 11,9 | 12,0 | 12,1 | 85,8 | 1009,5 | 11,2 | 0,0 |
| 03:10 | 263,9 | 0,8 | 1,1 | 11,8 | 11,9 | 12,0 | 85,9 | 1009,6 | 11,2 | 0,0 |
| 03:20 | 259,4 | 0,7 | 1,3 | 11,8 | 11,9 | 12,0 | 85,9 | 1009,6 | 11,1 | 0,0 |
| 03:30 | 249,2 | 0,9 | 1,4 | 11,9 | 12,0 | 12,3 | 85,2 | 1009,7 | 11,1 | 0,0 |
| 03:40 | 251,2 | 0,9 | 1,6 | 12,2 | 12,3 | 12,4 | 83,4 | 1009,7 | 11,0 | 0,0 |
| 03:50 | 246,2 | 0,7 | 1,5 | 12,2 | 12,3 | 12,5 | 82,7 | 1009,7 | 11,0 | 0,0 |
| 04:00 | 235,3 | 0,3 | 1,1 | 12,2 | 12,3 | 12,5 | 81,5 | 1009,7 | 10,9 | 0,0 |
| 04:10 | 240,1 | 0,4 | 1,5 | 12,3 | 12,5 | 12,7 | 81,0 | 1009,7 | 10,9 | 0,0 |
| 04:20 | 246,2 | 0,5 | 1,2 | 12,3 | 12,4 | 12,7 | 81,5 | 1009,7 | 10,9 | 0,0 |
| 04:30 | 250,0 | 0,8 | 1,7 | 12,2 | 12,4 | 12,6 | 81,9 | 1009,8 | 10,9 | 0,0 |
| 04:40 | 243,3 | 0,8 | 2,1 | 12,3 | 12,5 | 12,7 | 81,6 | 1009,8 | 10,9 | 0,0 |
| 04:50 | 231,5 | 0,5 | 1,6 | 12,4 | 12,5 | 12,7 | 80,9 | 1009,8 | 10,9 | 0,0 |
| 05:00 | 230,2 | 0,4 | 1,0 | 12,4 | 12,6 | 12,8 | 80,5 | 1009,7 | 11,0 | 0,0 |
| 05:10 | 191,4 | 0,3 | 0,8 | 12,6 | 12,7 | 12,9 | 80,6 | 1009,7 | 11,1 | 0,0 |
| 05:20 | 222,2 | 0,1 | 0,5 | 12,9 | 13,1 | 13,4 | 79,5 | 1009,8 | 11,3 | 0,0 |
| 05:30 | 359,0 | 0,3 | 0,6 | 13,4 | 13,6 | 13,8 | 77,3 | 1009,7 | 11,3 | 0,0 |
| 05:40 | 11,4 | 0,3 | 0,9 | 13,7 | 13,9 | 14,4 | 76,2 | 1009,7 | 11,4 | 0,0 |
| 05:50 | 16,8 | 0,3 | 0,8 | 14,0 | 14,2 | 14,4 | 74,9 | 1009,8 | 11,3 | 0,0 |
| 06:00 | 170,1 | 0,3 | 0,8 | 14,4 | 14,6 | 14,8 | 74,1 | 1009,8 | 11,6 | 0,0 |
| 06:10 | 109,7 | 0,4 | 1,2 | 14,5 | 14,7 | 15,0 | 74,0 | 1009,8 | 11,6 | 0,0 |
| 06:20 | 164,4 | 0,4 | 1,3 | 14,5 | 14,8 | 15,1 | 74,3 | 1009,9 | 11,8 | 0,0 |
| 06:30 | 102,5 | 0,5 | 1,4 | 14,8 | 15,0 | 15,2 | 73,9 | 1010,0 | 11,9 | 0,0 |
| 06:40 | 198,0 | 0,4 | 0,9 | 15,1 | 15,3 | 15,6 | 73,3 | 1010,0 | 12,1 | 0,0 |
| 06:50 | 114,5 | 0,5 | 1,8 | 15,6 | 15,9 | 16,5 | 70,6 | 1010,0 | 12,1 | 0,0 |
| 07:00 | 112,1 | 0,4 | 1,7 | 16,1 | 16,2 | 16,5 | 68,4 | 1009,9 | 11,8 | 0,0 |
| 07:10 | 149,9 | 0,6 | 2,0 | 15,9 | 16,1 | 16,3 | 69,0 | 1009,9 | 11,7 | 0,0 |
| 07:20 | 111,6 | 0,8 | 2,3 | 16,1 | 16,4 | 16,7 | 68,2 | 1009,9 | 11,8 | 0,0 |
| 07:30 | 128,8 | 0,6 | 1,9 | 16,6 | 16,9 | 17,3 | 66,6 | 1009,9 | 12,0 | 0,0 |
| 07:40 | 112,2 | 0,8 | 2,6 | 17,1 | 17,5 | 17,8 | 64,4 | 1010,0 | 12,0 | 0,0 |
| 07:50 | 106,3 | 0,8 | 2,3 | 17,6 | 18,0 | 18,3 | 63,4 | 1010,0 | 12,2 | 0,0 |
| Uhrzeit (MEZ) | Windrichtung in Grad | Windgeschw. in m/s | Windspitzen in m/s | Temp.Minima in °C | Temperatur in °C | Temp.Maxima in °C | Luftfeuchte in % | Luftdruck in hPa | Taupunkt in °C | Niederschlag in mm |
|---|---|---|---|---|---|---|---|---|---|---|
| 08:00 | 113,8 | 0,9 | 2,6 | 18,2 | 18,6 | 18,9 | 61,5 | 1009,9 | 12,2 | 0,0 |
| 08:10 | 127,7 | 0,9 | 2,4 | 18,3 | 18,6 | 19,0 | 61,4 | 1010,0 | 12,3 | 0,0 |
| 08:20 | 110,6 | 0,6 | 1,9 | 18,8 | 19,1 | 19,5 | 60,2 | 1010,1 | 12,4 | 0,0 |
| 08:30 | 139,2 | 0,8 | 2,0 | 19,3 | 19,8 | 20,1 | 58,2 | 1010,0 | 12,5 | 0,0 |
| 08:40 | 149,8 | 0,8 | 1,9 | 19,9 | 20,3 | 20,6 | 56,9 | 1009,9 | 12,6 | 0,0 |
| 08:50 | 134,4 | 0,8 | 2,2 | 20,5 | 20,7 | 21,0 | 53,9 | 1010,0 | 12,1 | 0,0 |
| 09:00 | 127,0 | 0,9 | 2,8 | 20,7 | 21,0 | 21,4 | 51,4 | 1009,9 | 11,6 | 0,0 |
| 09:10 | 150,3 | 1,0 | 2,3 | 21,1 | 21,4 | 21,7 | 50,3 | 1009,9 | 11,5 | 0,0 |
| 09:20 | 128,3 | 0,7 | 2,0 | 21,3 | 21,6 | 22,1 | 49,0 | 1010,0 | 11,4 | 0,0 |
| 09:30 | 130,6 | 0,7 | 2,5 | 21,9 | 22,1 | 22,4 | 47,1 | 1010,0 | 11,2 | 0,0 |
| 09:40 | 119,4 | 0,9 | 2,5 | 22,0 | 22,2 | 22,4 | 46,6 | 1010,0 | 11,1 | 0,0 |
| 09:50 | 137,4 | 0,7 | 2,1 | 22,0 | 22,3 | 22,8 | 46,1 | 1009,9 | 11,1 | 0,0 |
| 10:00 | 111,5 | 0,6 | 2,5 | 22,3 | 22,6 | 23,1 | 45,1 | 1009,8 | 11,0 | 0,0 |
| 10:10 | 118,3 | 0,8 | 2,0 | 22,7 | 23,0 | 23,4 | 44,2 | 1009,7 | 11,0 | 0,0 |
| 10:20 | 116,4 | 1,0 | 2,5 | 22,9 | 23,2 | 23,5 | 43,6 | 1009,7 | 10,9 | 0,0 |
| 10:30 | 112,7 | 0,7 | 2,5 | 22,8 | 23,2 | 23,6 | 43,4 | 1009,7 | 10,9 | 0,0 |
| 10:40 | 113,7 | 1,0 | 3,8 | 23,2 | 23,4 | 23,7 | 43,4 | 1009,6 | 11,1 | 0,0 |
| 10:50 | 111,8 | 0,7 | 3,1 | 23,3 | 23,6 | 24,1 | 42,9 | 1009,6 | 11,1 | 0,0 |
| 11:00 | 119,9 | 0,9 | 2,4 | 23,2 | 23,6 | 23,9 | 42,9 | 1009,5 | 11,0 | 0,0 |
| 11:10 | 119,7 | 0,8 | 2,4 | 23,2 | 23,7 | 24,2 | 42,7 | 1009,4 | 11,1 | 0,0 |
| 11:20 | 78,6 | 0,7 | 2,6 | 23,5 | 23,9 | 24,3 | 42,3 | 1009,4 | 11,1 | 0,0 |
| 11:30 | 106,5 | 0,9 | 2,7 | 24,1 | 24,4 | 24,9 | 41,8 | 1009,4 | 11,4 | 0,0 |
| 11:40 | 145,2 | 0,8 | 2,6 | 24,2 | 24,5 | 24,8 | 41,6 | 1009,4 | 11,3 | 0,0 |
| 11:50 | 99,3 | 0,9 | 4,1 | 24,4 | 24,8 | 25,3 | 41,1 | 1009,4 | 11,4 | 0,0 |
| 12:00 | 51,7 | 0,9 | 2,5 | 24,1 | 24,6 | 25,0 | 41,4 | 1009,3 | 11,4 | 0,0 |
| 12:10 | 107,9 | 1,0 | 4,4 | 24,1 | 24,8 | 25,2 | 41,7 | 1009,2 | 11,6 | 0,0 |
| 12:20 | 44,3 | 0,6 | 1,7 | 24,6 | 24,9 | 25,1 | 41,2 | 1009,2 | 11,6 | 0,0 |
| 12:30 | 74,4 | 0,9 | 3,3 | 24,8 | 25,3 | 25,8 | 40,9 | 1009,1 | 11,8 | 0,0 |
| 12:40 | 105,2 | 1,1 | 3,5 | 24,9 | 25,4 | 25,8 | 40,7 | 1009,0 | 11,7 | 0,0 |
| 12:50 | 93,5 | 0,7 | 2,1 | 25,0 | 25,6 | 26,1 | 40,3 | 1008,9 | 11,8 | 0,0 |
| 13:00 | 74,3 | 1,0 | 3,2 | 25,2 | 25,7 | 26,2 | 40,1 | 1008,8 | 11,8 | 0,0 |
| 13:10 | 87,3 | 1,3 | 4,0 | 25,2 | 25,6 | 25,9 | 40,5 | 1008,8 | 11,7 | 0,0 |
| 13:20 | 168,9 | 0,9 | 2,3 | 25,1 | 25,9 | 26,5 | 39,9 | 1008,8 | 11,8 | 0,0 |
| 13:30 | 136,9 | 0,8 | 3,0 | 26,0 | 26,3 | 26,7 | 38,8 | 1008,8 | 11,8 | 0,0 |
| 13:40 | 26,1 | 0,9 | 2,0 | 25,8 | 26,4 | 26,9 | 38,5 | 1008,7 | 11,7 | 0,0 |
| 13:50 | 50,9 | 1,4 | 3,1 | 26,1 | 26,4 | 26,7 | 38,7 | 1008,6 | 11,7 | 0,0 |
| 14:00 | 94,6 | 0,8 | 3,0 | 25,7 | 26,0 | 26,4 | 39,0 | 1008,7 | 11,6 | 0,0 |
| 14:10 | 78,9 | 1,1 | 3,4 | 26,1 | 26,5 | 26,8 | 38,3 | 1008,7 | 11,7 | 0,0 |
| 14:20 | 48,8 | 0,8 | 2,1 | 26,2 | 26,6 | 27,1 | 37,8 | 1008,6 | 11,6 | 0,0 |
| 14:30 | 106,7 | 0,7 | 1,9 | 26,3 | 26,9 | 27,5 | 37,1 | 1008,5 | 11,7 | 0,0 |
| 14:40 | 68,5 | 0,8 | 2,2 | 27,1 | 27,4 | 27,8 | 36,5 | 1008,4 | 11,7 | 0,0 |
| 14:50 | 62,8 | 0,6 | 2,2 | 26,7 | 27,2 | 28,0 | 36,6 | 1008,3 | 11,7 | 0,0 |
| 15:00 | 97,5 | 0,9 | 2,4 | 27,4 | 27,7 | 28,0 | 35,9 | 1008,1 | 11,7 | 0,0 |
| 15:10 | 41,6 | 1,1 | 3,1 | 27,0 | 27,4 | 27,9 | 36,2 | 1008,1 | 11,6 | 0,0 |
| 15:20 | 56,0 | 0,7 | 2,4 | 27,1 | 27,6 | 28,0 | 35,7 | 1008,0 | 11,6 | 0,0 |
| 15:30 | 36,9 | 1,0 | 2,5 | 27,6 | 27,9 | 28,2 | 35,3 | 1008,0 | 11,6 | 0,0 |
| 15:40 | 51,9 | 1,1 | 2,8 | 27,0 | 27,5 | 27,9 | 35,7 | 1007,9 | 11,4 | 0,0 |
| 15:50 | 42,9 | 0,8 | 1,9 | 27,1 | 27,5 | 28,0 | 35,6 | 1007,8 | 11,5 | 0,0 |
| Uhrzeit (MEZ) | Windrichtung in Grad | Windgeschw. in m/s | Windspitzen in m/s | Temp.Minima in °C | Temperatur in °C | Temp.Maxima in °C | Luftfeuchte in % | Luftdruck in hPa | Taupunkt in °C | Niederschlag in mm |
|---|---|---|---|---|---|---|---|---|---|---|
| 16:00 | 89,0 | 0,8 | 2,5 | 27,7 | 28,0 | 28,6 | 35,2 | 1007,7 | 11,7 | 0,0 |
| 16:10 | 156,3 | 0,8 | 2,3 | 28,3 | 28,6 | 28,9 | 34,1 | 1007,6 | 11,7 | 0,0 |
| 16:20 | 129,2 | 0,6 | 1,8 | 28,4 | 28,7 | 29,1 | 34,0 | 1007,5 | 11,8 | 0,0 |
| 16:30 | 73,6 | 0,7 | 2,1 | 28,6 | 29,1 | 29,7 | 33,4 | 1007,5 | 11,8 | 0,0 |
| 16:40 | 111,1 | 0,7 | 2,9 | 28,2 | 28,6 | 29,2 | 34,0 | 1007,4 | 11,6 | 0,0 |
| 16:50 | 134,7 | 0,6 | 1,7 | 28,4 | 28,8 | 29,2 | 33,5 | 1007,4 | 11,6 | 0,0 |
| 17:00 | 102,5 | 0,7 | 2,1 | 28,5 | 29,0 | 29,3 | 33,3 | 1007,3 | 11,6 | 0,0 |
| 17:10 | 72,0 | 0,7 | 1,7 | 28,4 | 28,6 | 29,0 | 33,4 | 1007,1 | 11,4 | 0,0 |
| 17:20 | 77,9 | 1,1 | 3,0 | 28,1 | 28,5 | 29,0 | 33,8 | 1007,0 | 11,4 | 0,0 |
| 17:30 | 47,3 | 0,9 | 2,3 | 27,9 | 28,2 | 28,6 | 33,9 | 1007,0 | 11,2 | 0,0 |
| 17:40 | 54,3 | 1,3 | 2,9 | 27,9 | 28,2 | 28,3 | 33,8 | 1006,9 | 11,1 | 0,0 |
| 17:50 | 56,5 | 1,0 | 2,7 | 27,7 | 28,0 | 28,5 | 34,0 | 1006,8 | 11,1 | 0,0 |
| 18:00 | 43,3 | 0,8 | 1,8 | 27,9 | 28,2 | 28,5 | 33,5 | 1006,7 | 11,0 | 0,0 |
| 18:10 | 37,2 | 1,1 | 2,8 | 27,8 | 28,1 | 28,5 | 34,0 | 1006,7 | 11,2 | 0,0 |
| 18:20 | 50,1 | 0,9 | 2,5 | 27,4 | 27,7 | 28,0 | 34,6 | 1006,7 | 11,1 | 0,0 |
| 18:30 | 68,5 | 0,8 | 2,6 | 27,8 | 28,1 | 28,5 | 34,7 | 1006,6 | 11,5 | 0,0 |
| 18:40 | 115,1 | 0,6 | 1,9 | 27,8 | 28,0 | 28,3 | 35,5 | 1006,6 | 11,9 | 0,0 |
| 18:50 | 96,2 | 1,1 | 2,6 | 27,3 | 27,8 | 28,2 | 36,0 | 1006,6 | 11,8 | 0,0 |
| 19:00 | 86,8 | 0,8 | 2,6 | 27,0 | 27,2 | 27,6 | 36,7 | 1006,7 | 11,7 | 0,0 |
| 19:10 | 66,9 | 0,8 | 2,1 | 26,8 | 27,0 | 27,4 | 37,2 | 1006,8 | 11,7 | 0,0 |
| 19:20 | 100,1 | 0,8 | 2,6 | 26,6 | 26,9 | 27,4 | 37,4 | 1006,7 | 11,7 | 0,0 |
| 19:30 | 90,0 | 0,7 | 2,0 | 26,4 | 26,6 | 26,9 | 38,0 | 1006,7 | 11,8 | 0,0 |
| 19:40 | 63,9 | 0,8 | 2,0 | 25,9 | 26,2 | 26,6 | 39,5 | 1006,7 | 12,0 | 0,0 |
| 19:50 | 59,5 | 0,9 | 2,4 | 25,4 | 25,7 | 26,2 | 40,7 | 1006,7 | 12,0 | 0,0 |
| 20:00 | 48,5 | 0,9 | 2,1 | 25,1 | 25,4 | 25,6 | 41,4 | 1006,6 | 12,0 | 0,0 |
| 20:10 | 59,9 | 1,0 | 2,4 | 24,9 | 25,2 | 25,4 | 42,0 | 1006,6 | 12,0 | 0,0 |
| 20:20 | 48,5 | 0,7 | 2,1 | 24,6 | 24,8 | 25,1 | 42,9 | 1006,5 | 12,1 | 0,0 |
| 20:30 | 52,5 | 0,6 | 1,5 | 24,3 | 24,5 | 24,8 | 43,7 | 1006,6 | 12,2 | 0,0 |
| 20:40 | 31,7 | 0,6 | 1,2 | 24,0 | 24,3 | 24,5 | 44,3 | 1006,7 | 12,2 | 0,0 |
| 20:50 | 204,6 | 0,3 | 0,9 | 23,5 | 23,8 | 24,2 | 46,5 | 1006,8 | 12,7 | 0,0 |
| 21:00 | 218,3 | 0,5 | 1,1 | 22,8 | 23,2 | 23,6 | 48,4 | 1006,8 | 12,8 | 0,0 |
| 21:10 | 229,7 | 0,6 | 0,9 | 21,8 | 22,2 | 22,8 | 51,0 | 1006,8 | 12,6 | 0,0 |
| 21:20 | 222,0 | 0,6 | 1,0 | 21,7 | 21,8 | 21,9 | 51,7 | 1006,8 | 12,5 | 0,0 |
| 21:30 | 217,8 | 0,4 | 0,9 | 21,5 | 21,7 | 21,8 | 52,2 | 1006,8 | 12,6 | 0,0 |
| 21:40 | 181,9 | 0,3 | 0,8 | 21,5 | 21,7 | 21,8 | 52,1 | 1006,8 | 12,6 | 0,0 |
| 21:50 | 155,5 | 0,3 | 0,8 | 21,6 | 21,8 | 21,9 | 51,8 | 1006,7 | 12,6 | 0,0 |
| 22:00 | 148,2 | 0,3 | 1,2 | 21,5 | 21,7 | 21,8 | 52,1 | 1006,6 | 12,6 | 0,0 |
| 22:10 | 150,9 | 0,4 | 1,4 | 21,5 | 21,6 | 21,8 | 51,4 | 1006,7 | 12,3 | 0,0 |
| 22:20 | 149,5 | 0,5 | 1,3 | 21,5 | 21,7 | 21,9 | 51,2 | 1006,7 | 12,2 | 0,0 |
| 22:30 | 135,0 | 0,5 | 1,4 | 21,4 | 21,6 | 21,8 | 51,4 | 1006,7 | 12,3 | 0,0 |
| 22:40 | 124,0 | 0,6 | 1,5 | 21,2 | 21,4 | 21,7 | 52,2 | 1006,6 | 12,3 | 0,0 |
| 22:50 | 141,9 | 0,4 | 1,2 | 21,0 | 21,2 | 21,3 | 53,1 | 1006,6 | 12,4 | 0,0 |
| 23:00 | 141,2 | 0,4 | 1,0 | 20,8 | 21,0 | 21,2 | 53,7 | 1006,6 | 12,4 | 0,0 |
| 23:10 | 137,2 | 0,5 | 1,6 | 20,7 | 20,9 | 21,1 | 54,1 | 1006,6 | 12,4 | 0,0 |
| 23:20 | 132,3 | 0,6 | 1,6 | 20,6 | 20,8 | 20,9 | 54,6 | 1006,7 | 12,4 | 0,0 |
| 23:30 | 139,4 | 0,4 | 1,3 | 20,3 | 20,6 | 20,8 | 55,4 | 1006,8 | 12,5 | 0,0 |
| 23:40 | 207,6 | 0,2 | 0,7 | 19,8 | 20,1 | 20,5 | 57,4 | 1006,8 | 12,8 | 0,0 |
| 23:50 | 270,4 | 0,1 | 0,5 | 19,3 | 19,6 | 19,9 | 59,6 | 1006,8 | 12,9 | 0,0 |
| << 27.7. | 29.7. >> |